Daily Bio-Meteorological Summary

Last 30 Days

Daily Data | America/Los_Angeles
as of 3/3/24 12:36 AM PST
Date Daily Max Temp (°F) Daily Min Temp (°F) Daily Rain (In) GDDs (DL) GDDs (Mx/Mn) Chilling <=45F (hrs) Chill Hrs 32-45F (hrs) Utah Chilling (Units) Chilling <=45F Seas (hrs) Chill Hrs 32-45 Seas (hrs) Utah Chilling Seas (Units) Chill Portions Hrs 70-85F (hrs) Hrs > 95F (hrs) Powdery Mildew Stress (pts) Bee Hrs Today (Hrs) Hrs <= 32F (hrs) Hrs <= 28F (hrs)
3/2/24 59.6 46.4 0.37 1.2 3.0 0.0 0.0 5.0 885 837 519 56 0.00 0.00 0 1.5 0.0 0.0
3/1/24 68.6 47.2 0.36 5.4 7.9 0.0 0.0 2.0 885 837 514 55 0.00 0.00 0 4.9 0.0 0.0
2/29/24 71.9 41.3 0.00 7.0 6.6 5.8 5.8 1.5 885 837 513 55 1.94 0.00 0 8.7 0.0 0.0
2/28/24 75.8 40.4 0.00 7.5 8.1 5.7 5.7 2.5 879 832 512 55 3.42 0.00 0 8.4 0.0 0.0
2/27/24 66.0 45.8 0.01 4.6 5.9 0.0 0.0 1.5 873 826 510 55 0.00 0.00 0 5.9 0.0 0.0
2/26/24 66.4 44.5 0.00 5.7 5.4 0.5 0.5 2.5 873 826 510 54 0.00 0.00 0 9.0 0.0 0.0
2/25/24 77.1 39.8 0.00 8.3 8.5 7.4 7.4 2.5 873 825 508 54 5.93 0.00 0 8.5 0.0 0.0
2/24/24 74.1 41.2 0.00 6.4 7.7 5.8 5.8 4.0 866 818 506 54 2.94 0.00 0 7.7 0.0 0.0
2/23/24 67.3 40.7 0.00 4.6 4.0 7.7 7.7 4.0 860 812 502 53 0.00 0.00 0 7.7 0.0 0.0
2/22/24 69.4 39.9 0.00 5.4 4.7 5.7 5.7 4.5 852 804 500 53 0.00 0.00 0 8.1 0.0 0.0
2/21/24 65.8 46.3 0.00 5.1 6.0 0.0 0.0 3.0 846 799 496 52 0.00 0.00 0 8.3 0.0 0.0
2/20/24 72.1 51.5 0.10 8.0 11.8 0.0 0.0 2.5 846 799 494 52 0.56 0.00 0 9.0 0.0 0.0
2/19/24 69.6 51.4 0.63 7.4 10.5 0.0 0.0 2.0 846 799 492 52 0.00 0.00 0 7.4 0.0 0.0
2/18/24 76.6 47.7 0.05 9.7 12.1 0.0 0.0 0.0 846 799 490 52 4.38 0.00 0 8.7 0.0 0.0
2/17/24 63.2 45.0 0.06 4.2 4.1 0.0 0.0 2.5 846 799 490 52 0.00 0.00 0 8.1 0.0 0.0
2/16/24 64.3 42.3 0.00 3.7 3.3 6.3 6.3 3.0 846 799 488 51 0.00 0.00 0 7.3 0.0 0.0
2/15/24 64.6 44.2 0.08 3.8 4.4 0.4 0.4 4.5 840 792 486 51 0.00 0.00 0 7.6 0.0 0.0
2/14/24 66.3 37.4 0.00 4.4 1.9 8.2 8.2 2.0 840 792 482 50 0.00 0.00 0 7.6 0.0 0.0
2/13/24 66.8 34.9 0.00 3.8 0.8 12.7 12.7 5.5 831 784 480 50 0.00 0.00 0 7.2 0.0 0.0
2/12/24 67.8 33.8 0.00 3.9 0.8 11.6 11.6 5.0 819 771 476 50 0.00 0.00 0 7.2 0.0 0.0
2/11/24 66.2 32.4 0.00 3.4 0.0 13.8 13.8 6.5 807 760 472 50 0.00 0.00 0 7.1 0.0 0.0
2/10/24 59.6 36.3 0.00 1.6 0.0 12.7 12.7 6.5 793 746 466 49 0.00 0.00 0 4.2 0.0 0.0
2/9/24 58.0 34.3 0.00 1.5 0.0 9.6 9.6 7.0 781 733 461 48 0.00 0.00 0 2.7 0.0 0.0
2/8/24 57.7 40.7 0.00 0.8 0.0 11.7 11.7 7.0 771 724 455 48 0.00 0.00 0 1.6 0.0 0.0
2/7/24 56.6 42.9 0.74 0.6 0.0 4.4 4.4 20.0 759 712 449 47 0.00 0.00 0 0.2 0.0 0.0
2/6/24 58.0 46.3 0.64 1.7 2.1 0.0 0.0 4.5 755 707 430 46 0.00 0.00 0 4.9 0.0 0.0
2/5/24 68.8 49.9 0.41 5.8 9.4 0.0 0.0 3.0 755 707 426 45 0.00 0.00 0 7.6 0.0 0.0
2/4/24 68.0 47.7 0.34 6.5 7.9 0.0 0.0 1.5 755 707 424 45 0.00 0.00 0 6.5 0.0 0.0
2/3/24 58.4 39.3 0.00 1.8 0.0 7.8 7.8 3.5 755 707 423 45 0.00 0.00 0 5.4 0.0 0.0
2/2/24 63.4 43.8 0.14 2.1 3.6 1.0 1.0 6.5 747 700 420 44 0.00 0.00 0 4.5 0.0 0.0
Max 77.1 51.5 0.74 9.7 12.1 13.8 13.8 20.0 - - - 56 5.93 0.00 - 9.0 0.0 0.0
Avg - - - 4.5 4.7 4.6 4.6 4.2 - - - 51 0.64 0.00 - 6.5 0.0 0.0
Min 56.6 32.4 0.00 0.6 0.0 0.0 0.0 0.0 - - - 44 0.00 0.00 - 0.2 0.0 0.0
Total - - - 136.1 140.5 138.8 138.8 126.0 - - - - 19.17 0.00 - 193.6 0.0 0.0